createdAt,value
2017-11-10T00:00:20.831Z,23.43
2017-11-10T00:02:48.256Z,23.33
2017-11-10T00:05:16.439Z,22.90
2017-11-10T00:07:44.634Z,23.53
2017-11-10T00:10:12.059Z,21.23
2017-11-10T00:12:40.235Z,20.40
2017-11-10T00:15:08.420Z,21.60
2017-11-10T00:17:37.515Z,21.00
2017-11-10T00:20:04.928Z,21.20
2017-11-10T00:22:32.347Z,20.33
2017-11-10T00:24:59.768Z,20.40
2017-11-10T00:27:27.957Z,21.67
2017-11-10T00:29:56.125Z,21.33
2017-11-10T00:32:23.545Z,19.90
2017-11-10T00:34:50.972Z,20.60
2017-11-10T00:37:18.388Z,21.57
2017-11-10T00:39:46.575Z,20.40
2017-11-10T00:42:13.996Z,21.20
2017-11-10T00:44:41.411Z,20.67
2017-11-10T00:47:08.827Z,19.60
2017-11-10T00:49:37.944Z,17.60
2017-11-10T00:52:05.356Z,18.67
2017-11-10T00:54:32.772Z,18.07
2017-11-10T00:57:00.192Z,17.90
2017-11-10T00:59:28.385Z,16.50
2017-11-10T01:01:55.811Z,17.13
2017-11-10T01:04:23.992Z,18.00
2017-11-10T01:06:52.192Z,17.37
2017-11-10T01:09:19.609Z,17.42
2017-11-10T01:11:47.811Z,15.47
2017-11-10T01:14:15.215Z,17.20
2017-11-10T01:16:42.647Z,15.70
2017-11-10T01:19:10.061Z,16.27
2017-11-10T01:21:39.093Z,16.73
2017-11-10T01:24:06.497Z,17.47
2017-11-10T01:26:33.924Z,17.80
2017-11-10T01:29:01.324Z,17.00
2017-11-10T01:31:29.516Z,18.50
2017-11-10T01:33:56.921Z,17.37
2017-11-10T01:36:24.340Z,18.30
2017-11-10T01:38:51.763Z,17.60
2017-11-10T01:41:19.935Z,18.00
2017-11-10T01:43:48.779Z,17.90
2017-11-10T01:46:16.196Z,17.80
2017-11-10T01:48:43.616Z,18.83
2017-11-10T01:51:11.039Z,18.97
2017-11-10T01:53:38.975Z,18.37
2017-11-10T01:56:06.395Z,18.60
2017-11-10T01:58:34.024Z,18.63
2017-11-10T02:01:01.425Z,14.93
2017-11-10T02:03:28.844Z,17.67
2017-11-10T02:05:56.286Z,17.20
2017-11-10T02:08:23.699Z,17.97
2017-11-10T02:10:51.871Z,16.00
2017-11-10T02:13:20.068Z,17.40
2017-11-10T02:15:47.484Z,15.43
2017-11-10T02:18:14.892Z,16.80
2017-11-10T02:20:42.312Z,16.77
2017-11-10T02:23:10.537Z,16.27
2017-11-10T02:25:37.948Z,16.57
2017-11-10T02:28:06.119Z,17.70
2017-11-10T02:30:34.348Z,17.33
2017-11-10T02:33:01.755Z,18.27
2017-11-10T02:35:29.931Z,18.70
2017-11-10T02:37:57.348Z,17.90
2017-11-10T02:40:24.786Z,18.00
2017-11-10T02:42:52.197Z,18.93
2017-11-10T02:45:19.620Z,18.53
2017-11-10T02:47:47.045Z,18.40
2017-11-10T02:50:14.467Z,19.50
2017-11-10T02:52:41.881Z,18.60
2017-11-10T02:55:10.335Z,18.87
2017-11-10T02:57:37.763Z,19.30
2017-11-10T03:00:05.178Z,19.73
2017-11-10T03:02:32.583Z,19.90
2017-11-10T03:05:00.005Z,19.33
2017-11-10T03:07:27.427Z,20.10
2017-11-10T03:09:54.831Z,16.50
2017-11-10T03:12:23.007Z,18.00
2017-11-10T03:14:51.183Z,16.07
2017-11-10T03:17:18.624Z,18.67
2017-11-10T03:19:46.028Z,18.10
2017-11-10T03:22:13.444Z,18.23
2017-11-10T03:24:40.900Z,17.77
2017-11-10T03:27:09.095Z,16.07
2017-11-10T03:29:36.513Z,15.93
2017-11-10T03:32:03.934Z,15.77
2017-11-10T03:34:31.347Z,14.43
2017-11-10T03:36:59.528Z,13.17
2017-11-10T03:39:26.945Z,14.17
2017-11-10T03:41:54.362Z,14.93
2017-11-10T03:44:21.775Z,13.83
2017-11-10T03:46:49.958Z,15.30
2017-11-10T03:49:18.135Z,14.50
2017-11-10T03:51:45.556Z,14.63
2017-11-10T03:54:12.969Z,14.97
2017-11-10T03:56:40.391Z,10.20
2017-11-10T03:59:08.564Z,14.90
2017-11-10T04:01:36.749Z,14.77
2017-11-10T04:04:04.160Z,16.50
2017-11-10T04:06:31.575Z,15.80
2017-11-10T04:08:59.009Z,15.70
2017-11-10T04:11:27.183Z,16.03
2017-11-10T04:13:55.374Z,15.23
2017-11-10T04:16:22.805Z,16.70
2017-11-10T04:18:50.208Z,14.97
2017-11-10T04:21:17.625Z,17.00
2017-11-10T04:23:45.804Z,15.83
2017-11-10T04:26:13.222Z,17.27
2017-11-10T04:28:40.633Z,18.00
2017-11-10T04:31:08.085Z,18.63
2017-11-10T04:33:35.500Z,19.17
2017-11-10T04:36:02.911Z,18.70
2017-11-10T04:38:30.322Z,19.27
2017-11-10T04:40:58.514Z,19.27
2017-11-10T04:43:25.936Z,20.63
2017-11-10T04:45:53.344Z,20.43
2017-11-10T04:48:20.760Z,21.03
2017-11-10T04:50:48.932Z,20.17
2017-11-10T04:53:17.115Z,20.27
2017-11-10T04:55:45.292Z,19.20
2017-11-10T04:58:13.765Z,20.90
2017-11-10T05:00:42.892Z,21.93
2017-11-10T05:03:10.300Z,21.30
2017-11-10T05:05:37.720Z,20.10
2017-11-10T05:08:05.136Z,19.63
2017-11-10T05:10:33.337Z,20.87
2017-11-10T05:13:00.749Z,20.40
2017-11-10T05:15:28.180Z,19.83
2017-11-10T05:17:55.588Z,19.57
2017-11-10T05:20:23.013Z,19.27
2017-11-10T05:22:51.201Z,19.57
2017-11-10T05:25:19.376Z,20.53
2017-11-10T05:27:47.556Z,19.70
2017-11-10T05:30:15.742Z,21.17
2017-11-10T05:32:44.415Z,20.27
2017-11-10T05:35:11.830Z,20.87
2017-11-10T05:37:39.248Z,21.80
2017-11-10T05:40:06.660Z,22.73
2017-11-10T05:42:34.071Z,22.77
2017-11-10T05:45:01.481Z,21.37
2017-11-10T05:47:29.659Z,21.97
2017-11-10T05:49:57.855Z,22.90
2017-11-10T05:52:25.247Z,22.40
2017-11-10T05:54:52.655Z,23.93
2017-11-10T05:57:20.069Z,22.53
2017-11-10T05:59:47.484Z,24.90
2017-11-10T06:02:14.903Z,23.70
2017-11-10T06:04:43.092Z,23.47
2017-11-10T06:07:10.508Z,24.73
2017-11-10T06:09:37.915Z,25.93
2017-11-10T06:12:05.325Z,25.33
2017-11-10T06:14:32.751Z,27.10
2017-11-10T06:17:00.171Z,28.27
2017-11-10T06:19:27.588Z,26.43
2017-11-10T06:21:56.509Z,27.17
2017-11-10T06:24:24.680Z,27.90
2017-11-10T06:26:52.878Z,26.53
2017-11-10T06:29:20.296Z,28.70
2017-11-10T06:31:48.479Z,28.03
2017-11-10T06:34:17.645Z,29.60
2017-11-10T06:36:45.857Z,23.40
2017-11-10T06:39:14.988Z,29.70
2017-11-10T06:41:42.424Z,32.03
2017-11-10T06:44:09.836Z,29.47
2017-11-10T06:46:37.276Z,27.70
2017-11-10T06:49:04.715Z,30.70
2017-11-10T06:51:32.129Z,28.53
2017-11-10T06:54:00.312Z,18.80
2017-11-10T06:56:27.729Z,27.30
2017-11-10T06:58:55.148Z,28.23
2017-11-10T07:01:22.578Z,29.10
2017-11-10T07:03:50.753Z,24.23
2017-11-10T07:06:18.932Z,25.30
2017-11-10T07:08:46.519Z,27.47
2017-11-10T07:11:13.933Z,26.47
2017-11-10T07:13:42.114Z,25.67
2017-11-10T07:16:10.289Z,27.93
2017-11-10T07:18:37.699Z,26.80
2017-11-10T07:21:05.505Z,26.67
2017-11-10T07:23:32.915Z,26.73
2017-11-10T07:26:00.325Z,27.20
2017-11-10T07:28:27.804Z,25.27
2017-11-10T07:30:55.271Z,28.50
2017-11-10T07:33:22.712Z,28.73
2017-11-10T07:35:50.123Z,28.67
2017-11-10T07:38:17.552Z,21.57
2017-11-10T07:40:44.956Z,27.10
2017-11-10T07:43:13.178Z,26.50
2017-11-10T07:45:40.604Z,25.70
2017-11-10T07:48:08.022Z,26.00
2017-11-10T07:50:35.530Z,23.53
2017-11-10T07:53:02.943Z,23.30
2017-11-10T07:55:31.124Z,24.40
2017-11-10T07:57:59.304Z,23.10
2017-11-10T08:00:26.743Z,23.27
2017-11-10T08:02:54.933Z,23.30
2017-11-10T08:05:23.112Z,20.73
2017-11-10T08:07:50.524Z,20.07
2017-11-10T08:10:17.944Z,18.00
2017-11-10T08:12:45.352Z,21.00
2017-11-10T08:15:13.535Z,17.67
2017-11-10T08:17:41.713Z,19.93
2017-11-10T08:20:09.914Z,18.93
2017-11-10T08:22:37.328Z,20.70
2017-11-10T08:25:05.509Z,13.97
2017-11-10T08:27:33.697Z,22.10
2017-11-10T08:30:01.888Z,21.43
2017-11-10T08:32:29.302Z,22.07
2017-11-10T08:34:56.747Z,20.13
2017-11-10T08:37:24.493Z,21.67
2017-11-10T08:39:51.909Z,20.90
2017-11-10T08:42:19.401Z,22.70
2017-11-10T08:44:47.738Z,24.73
2017-11-10T08:47:15.150Z,23.33
2017-11-10T08:49:42.558Z,22.97
2017-11-10T08:52:09.964Z,24.13
2017-11-10T08:54:37.379Z,21.73
2017-11-10T08:57:04.796Z,22.87
2017-11-10T08:59:32.982Z,21.30
2017-11-10T09:02:01.165Z,23.83
2017-11-10T09:04:28.576Z,24.17
2017-11-10T09:06:56.016Z,24.50
2017-11-10T09:09:23.420Z,24.03
2017-11-10T09:11:51.640Z,21.80
2017-11-10T09:14:19.052Z,23.10
2017-11-10T09:16:48.159Z,24.33
2017-11-10T09:19:16.331Z,24.27
2017-11-10T09:21:43.749Z,25.13
2017-11-10T09:24:11.165Z,22.50
2017-11-10T09:26:39.450Z,24.17
2017-11-10T09:29:12.579Z,24.83
2017-11-10T09:31:45.740Z,22.70
2017-11-10T09:34:13.824Z,21.13
2017-11-10T09:36:41.253Z,22.33
2017-11-10T09:39:09.416Z,20.50
2017-11-10T09:41:42.464Z,19.07
2017-11-10T09:44:20.557Z,19.60
2017-11-10T09:46:56.132Z,20.52
2017-11-10T09:52:38.114Z,19.00
2017-11-10T09:55:10.517Z,20.30
2017-11-10T09:57:52.532Z,21.30
2017-11-10T10:00:22.542Z,21.90
2017-11-10T10:02:52.860Z,20.50
2017-11-10T10:08:44.136Z,22.23
2017-11-10T10:14:15.192Z,21.70
2017-11-10T10:17:00.490Z,22.60
2017-11-10T10:22:38.141Z,22.37
2017-11-10T10:25:06.324Z,22.63
2017-11-10T10:27:33.747Z,21.40
2017-11-10T10:30:01.164Z,21.67
2017-11-10T10:32:28.575Z,23.67
2017-11-10T10:34:55.992Z,21.70
2017-11-10T10:37:23.451Z,21.60
2017-11-10T10:39:50.864Z,20.40
2017-11-10T10:42:18.286Z,20.27
2017-11-10T10:44:45.707Z,21.50
2017-11-10T10:47:13.171Z,21.60
2017-11-10T10:49:40.799Z,23.57
2017-11-10T10:52:08.212Z,23.17
2017-11-10T10:54:35.632Z,22.87
2017-11-10T10:57:03.048Z,24.13
2017-11-10T10:59:31.224Z,23.33
2017-11-10T11:01:58.627Z,25.17
2017-11-10T11:04:26.062Z,24.57
2017-11-10T11:06:53.464Z,24.07
2017-11-10T11:09:20.888Z,24.87
2017-11-10T11:11:48.356Z,24.93
2017-11-10T11:14:15.750Z,25.17
2017-11-10T11:16:43.924Z,24.20
2017-11-10T11:19:12.097Z,25.00
2017-11-10T11:21:39.508Z,25.03
2017-11-10T11:24:06.929Z,24.50
2017-11-10T11:26:34.332Z,26.13
2017-11-10T11:29:01.756Z,23.60
2017-11-10T11:31:29.164Z,24.37
2017-11-10T11:33:57.376Z,24.00
2017-11-10T11:36:24.796Z,25.13
2017-11-10T11:38:52.966Z,21.73
2017-11-10T11:41:22.444Z,24.92
2017-11-10T11:43:50.784Z,24.20
2017-11-10T11:46:18.246Z,23.80
2017-11-10T11:48:45.640Z,23.10
2017-11-10T11:51:13.083Z,24.87
2017-11-10T11:53:40.499Z,23.50
2017-11-10T11:56:07.909Z,24.50
2017-11-10T11:58:35.327Z,24.20
2017-11-10T12:01:02.758Z,22.20
2017-11-10T12:03:30.936Z,22.30
2017-11-10T12:05:58.352Z,21.10
2017-11-10T12:08:25.765Z,21.57
2017-11-10T12:10:53.181Z,20.50
2017-11-10T12:13:21.976Z,19.48
2017-11-10T12:15:50.162Z,17.60
2017-11-10T12:18:18.336Z,17.83
2017-11-10T12:20:45.753Z,17.17
2017-11-10T12:23:13.180Z,17.30
2017-11-10T12:25:40.592Z,17.23
2017-11-10T12:28:08.771Z,17.30
2017-11-10T12:30:36.226Z,17.00
2017-11-10T12:33:04.443Z,16.60
2017-11-10T12:35:31.847Z,15.67
2017-11-10T12:38:00.028Z,17.03
2017-11-10T12:40:28.251Z,16.97
2017-11-10T12:42:55.663Z,16.90
2017-11-10T12:45:23.071Z,14.80
2017-11-10T12:47:50.484Z,15.40
2017-11-10T12:50:17.900Z,15.17
2017-11-10T12:52:45.320Z,15.67
2017-11-10T12:55:12.760Z,15.80
2017-11-10T12:57:40.185Z,14.97
2017-11-10T13:00:08.360Z,15.47
2017-11-10T13:02:36.536Z,14.20
2017-11-10T13:05:04.710Z,15.27
2017-11-10T13:07:32.888Z,16.20
2017-11-10T13:10:00.318Z,14.73
2017-11-10T13:12:27.846Z,14.60
2017-11-10T13:14:55.256Z,15.97
2017-11-10T13:17:22.672Z,16.00
2017-11-10T13:19:52.526Z,17.00
2017-11-10T13:22:20.736Z,14.60
2017-11-10T13:24:48.146Z,15.57
2017-11-10T13:27:16.346Z,16.77
2017-11-10T13:29:43.748Z,17.57
2017-11-10T13:32:11.184Z,17.07
2017-11-10T13:34:38.583Z,16.87
2017-11-10T13:37:06.778Z,17.17
2017-11-10T13:39:34.948Z,18.70
2017-11-10T13:42:02.392Z,18.53
2017-11-10T13:44:30.579Z,19.10
2017-11-10T13:46:58.770Z,20.73
2017-11-10T13:49:26.172Z,20.60
2017-11-10T13:51:53.621Z,20.93
2017-11-10T13:54:21.031Z,21.00
2017-11-10T13:56:48.452Z,21.43
2017-11-10T13:59:16.631Z,19.80
2017-11-10T14:01:44.817Z,20.60
2017-11-10T14:04:12.232Z,22.40
2017-11-10T14:06:39.652Z,21.40
2017-11-10T14:09:07.093Z,21.57
2017-11-10T14:11:34.495Z,22.07
2017-11-10T14:14:01.908Z,20.10
2017-11-10T14:16:29.325Z,19.43
2017-11-10T14:18:56.733Z,21.33
2017-11-10T14:21:24.151Z,20.57
2017-11-10T14:23:52.336Z,20.03
2017-11-10T14:26:19.764Z,20.17
2017-11-10T14:28:47.181Z,17.50
2017-11-10T14:31:14.612Z,17.33
2017-11-10T14:33:42.780Z,17.60
2017-11-10T14:36:10.965Z,16.70
2017-11-10T14:38:38.378Z,16.63
2017-11-10T14:41:05.792Z,17.17
2017-11-10T14:43:33.212Z,16.87
2017-11-10T14:46:00.624Z,17.03
2017-11-10T14:48:28.063Z,5.40
2017-11-10T14:50:55.447Z,4.90
2017-11-10T14:53:22.875Z,3.37
2017-11-10T14:55:50.301Z,3.13
2017-11-10T14:58:18.477Z,2.77
2017-11-10T15:00:45.888Z,2.50
2017-11-10T15:03:13.324Z,2.80
2017-11-10T15:05:40.732Z,2.27
2017-11-10T15:08:08.937Z,2.10
2017-11-10T15:10:36.349Z,2.00
2017-11-10T15:13:04.525Z,2.10
2017-11-10T15:15:32.701Z,1.77
2017-11-10T15:18:00.896Z,2.27
2017-11-10T15:20:28.308Z,2.43
2017-11-10T15:22:55.738Z,1.93
2017-11-10T15:25:23.171Z,1.80
2017-11-10T15:27:50.592Z,1.73
2017-11-10T15:30:18.045Z,1.90
2017-11-10T15:32:45.460Z,1.90
2017-11-10T15:35:12.880Z,2.00
2017-11-10T15:37:41.060Z,2.20
2017-11-10T15:40:08.466Z,1.70
2017-11-10T15:42:35.901Z,2.20
2017-11-10T15:45:03.318Z,2.17
2017-11-10T15:47:31.498Z,2.00
2017-11-10T15:49:59.689Z,1.83
2017-11-10T15:52:27.099Z,1.97
2017-11-10T15:54:56.205Z,1.60
2017-11-10T15:57:24.387Z,2.20
2017-11-10T15:59:52.577Z,2.47
2017-11-10T16:02:19.988Z,4.13
2017-11-10T16:04:47.612Z,3.00
2017-11-10T16:07:15.462Z,3.00
2017-11-10T16:09:42.870Z,2.37
2017-11-10T16:12:11.044Z,2.20
2017-11-10T16:14:38.459Z,2.33
2017-11-10T16:17:05.868Z,2.23
2017-11-10T16:19:34.047Z,2.73
2017-11-10T16:22:01.460Z,2.00
2017-11-10T16:24:28.888Z,2.00
2017-11-10T16:26:56.319Z,2.10
2017-11-10T16:29:24.485Z,2.10
2017-11-10T16:31:52.660Z,2.30
2017-11-10T16:34:20.882Z,2.00
2017-11-10T16:36:49.671Z,2.53
2017-11-10T16:39:17.071Z,2.10
2017-11-10T16:41:44.483Z,2.50
2017-11-10T16:44:11.881Z,2.77
2017-11-10T16:46:39.315Z,2.67
2017-11-10T16:49:06.719Z,2.40
2017-11-10T16:51:34.137Z,2.37
2017-11-10T16:54:01.556Z,2.80
2017-11-10T16:56:28.964Z,2.60
2017-11-10T16:58:57.469Z,2.70
2017-11-10T17:01:24.909Z,2.55
2017-11-10T17:03:52.308Z,3.10
2017-11-10T17:06:19.721Z,2.77
2017-11-10T17:08:47.896Z,3.10
2017-11-10T17:11:16.114Z,2.40
2017-11-10T17:13:43.499Z,3.10
2017-11-10T17:16:10.908Z,2.60
2017-11-10T17:18:38.315Z,2.70
2017-11-10T17:21:05.732Z,2.63
2017-11-10T17:23:33.180Z,2.40
2017-11-10T17:26:00.600Z,2.30
2017-11-10T17:28:28.009Z,2.70
2017-11-10T17:30:55.428Z,2.60
2017-11-10T17:33:22.849Z,3.07
2017-11-10T17:35:50.254Z,2.60
2017-11-10T17:38:17.719Z,2.87
2017-11-10T17:40:45.137Z,3.67
2017-11-10T17:43:13.336Z,3.47
2017-11-10T17:45:40.776Z,3.75
2017-11-10T17:48:08.944Z,3.70
2017-11-10T17:50:37.128Z,3.70
2017-11-10T17:53:04.554Z,3.43
2017-11-10T17:55:31.976Z,4.53
2017-11-10T17:57:59.400Z,4.37
2017-11-10T18:00:26.836Z,3.40
2017-11-10T18:02:55.013Z,3.40
2017-11-10T18:05:23.188Z,3.93
2017-11-10T18:07:51.359Z,3.50
2017-11-10T18:10:19.556Z,4.00
2017-11-10T18:12:46.977Z,3.50
2017-11-10T18:15:15.169Z,3.20
2017-11-10T18:17:43.344Z,3.90
2017-11-10T18:20:10.796Z,2.83
2017-11-10T18:22:38.974Z,3.50
2017-11-10T18:25:06.384Z,3.10
2017-11-10T18:27:33.800Z,3.27
2017-11-10T18:30:01.214Z,2.67
2017-11-10T18:32:29.405Z,3.13
2017-11-10T18:34:57.599Z,2.97
2017-11-10T18:37:25.011Z,3.20
2017-11-10T18:39:52.421Z,3.33
2017-11-10T18:42:19.839Z,3.20
2017-11-10T18:44:48.008Z,2.93
2017-11-10T18:47:16.183Z,3.57
2017-11-10T18:49:44.360Z,2.43
2017-11-10T18:52:12.553Z,2.87
2017-11-10T18:54:40.724Z,2.90
2017-11-10T18:57:08.901Z,3.33
2017-11-10T18:59:36.327Z,3.90
2017-11-10T19:02:03.748Z,3.20
2017-11-10T19:04:31.184Z,2.27
2017-11-10T19:06:59.371Z,2.70
2017-11-10T19:09:26.800Z,3.67
2017-11-10T19:11:54.958Z,2.50
2017-11-10T19:14:23.136Z,2.80
2017-11-10T19:16:50.548Z,3.10
2017-11-10T19:19:17.960Z,3.57
2017-11-10T19:21:45.373Z,2.50
2017-11-10T19:24:12.794Z,2.40
2017-11-10T19:26:40.195Z,2.80
2017-11-10T19:29:08.367Z,2.13
2017-11-10T19:31:36.547Z,2.10
2017-11-10T19:34:04.721Z,2.03
2017-11-10T19:36:32.936Z,2.30
2017-11-10T19:39:00.366Z,1.87
2017-11-10T19:41:28.548Z,2.27
2017-11-10T19:43:55.947Z,2.37
2017-11-10T19:46:23.359Z,2.20
2017-11-10T19:48:50.770Z,2.00
2017-11-10T19:51:18.180Z,1.70
2017-11-10T19:53:45.593Z,2.20
2017-11-10T19:56:13.032Z,2.40
2017-11-10T19:58:40.428Z,1.70
2017-11-10T20:01:08.617Z,2.30
2017-11-10T20:03:36.395Z,2.23
2017-11-10T20:06:03.808Z,2.30
2017-11-10T20:08:32.022Z,2.17
2017-11-10T20:10:59.427Z,1.60
2017-11-10T20:13:26.841Z,1.77
2017-11-10T20:15:54.255Z,2.00
2017-11-10T20:18:22.453Z,1.73
2017-11-10T20:20:49.873Z,1.93
2017-11-10T20:23:17.297Z,2.00
2017-11-10T20:25:44.708Z,2.47
2017-11-10T20:28:12.114Z,3.27
2017-11-10T20:30:39.533Z,2.20
2017-11-10T20:33:06.949Z,2.90
2017-11-10T20:35:34.353Z,1.97
2017-11-10T20:38:01.763Z,2.20
2017-11-10T20:40:30.875Z,1.80
2017-11-10T20:42:59.040Z,2.33
2017-11-10T20:45:27.224Z,2.40
2017-11-10T20:47:55.394Z,2.07
2017-11-10T20:50:23.593Z,2.10
2017-11-10T20:52:51.003Z,2.50
2017-11-10T20:55:18.416Z,2.60
2017-11-10T20:57:45.816Z,2.10
2017-11-10T21:00:13.219Z,2.27
2017-11-10T21:02:40.682Z,2.43
2017-11-10T21:05:08.105Z,2.27
2017-11-10T21:07:36.285Z,2.57
2017-11-10T21:10:03.694Z,2.67
2017-11-10T21:12:32.307Z,2.60
2017-11-10T21:15:01.399Z,2.00
2017-11-10T21:17:29.575Z,2.77
2017-11-10T21:19:57.747Z,2.80
2017-11-10T21:22:25.927Z,2.60
2017-11-10T21:24:54.100Z,2.60
2017-11-10T21:27:22.283Z,2.37
2017-11-10T21:29:49.691Z,2.60
2017-11-10T21:32:17.114Z,3.03
2017-11-10T21:34:44.518Z,2.40
2017-11-10T21:37:11.916Z,2.60
2017-11-10T21:39:39.329Z,2.47
2017-11-10T21:42:06.738Z,2.10
2017-11-10T21:44:34.144Z,2.03
2017-11-10T21:47:02.733Z,2.45
2017-11-10T21:49:30.908Z,2.30
2017-11-10T21:51:58.340Z,2.30
2017-11-10T21:54:25.761Z,2.30
2017-11-10T21:56:53.179Z,1.60
2017-11-10T21:59:21.375Z,1.83
2017-11-10T22:01:49.549Z,1.77
2017-11-10T22:04:16.960Z,2.30
2017-11-10T22:06:44.380Z,2.43
2017-11-10T22:09:11.852Z,1.70
2017-11-10T22:11:40.236Z,2.13
2017-11-10T22:14:07.657Z,1.90
2017-11-10T22:16:35.062Z,1.87
2017-11-10T22:19:03.262Z,2.40
2017-11-10T22:21:32.350Z,1.77
2017-11-10T22:24:00.539Z,2.70
2017-11-10T22:26:28.731Z,2.33
2017-11-10T22:28:56.148Z,2.20
2017-11-10T22:31:24.345Z,1.95
2017-11-10T22:33:52.536Z,2.87
2017-11-10T22:36:19.940Z,2.23
2017-11-10T22:38:47.391Z,2.30
2017-11-10T22:41:14.815Z,2.40
2017-11-10T22:43:42.235Z,2.60
2017-11-10T22:46:10.425Z,2.50
2017-11-10T22:48:37.855Z,2.30
2017-11-10T22:51:05.256Z,2.67
2017-11-10T22:53:32.852Z,2.50
2017-11-10T22:56:00.275Z,2.70
2017-11-10T22:58:27.692Z,3.10
2017-11-10T23:00:55.888Z,2.83
2017-11-10T23:03:23.318Z,2.67
2017-11-10T23:05:50.721Z,2.63
2017-11-10T23:08:18.131Z,3.00
2017-11-10T23:10:46.329Z,2.83
2017-11-10T23:13:13.740Z,3.10
2017-11-10T23:15:41.144Z,2.73
2017-11-10T23:18:08.562Z,3.50
2017-11-10T23:20:35.972Z,3.10
2017-11-10T23:23:04.207Z,3.30
2017-11-10T23:25:33.320Z,3.23
2017-11-10T23:28:00.725Z,3.07
2017-11-10T23:30:28.135Z,2.53
2017-11-10T23:32:55.563Z,3.15
2017-11-10T23:35:23.742Z,3.23
2017-11-10T23:37:51.148Z,3.20
2017-11-10T23:40:18.595Z,2.93
2017-11-10T23:42:46.084Z,3.27
2017-11-10T23:45:13.510Z,3.07
2017-11-10T23:47:40.926Z,2.27
2017-11-10T23:50:09.098Z,2.83
2017-11-10T23:52:37.313Z,2.70
2017-11-10T23:55:04.731Z,2.47
2017-11-10T23:57:33.845Z,2.60
